createdAt,value
2018-12-27T00:01:29.528Z,5.56
2018-12-27T00:03:59.028Z,5.58
2018-12-27T00:06:28.445Z,5.60
2018-12-27T00:08:58.003Z,5.63
2018-12-27T00:11:27.655Z,5.61
2018-12-27T00:13:57.018Z,5.60
2018-12-27T00:16:26.667Z,5.65
2018-12-27T00:18:56.274Z,5.73
2018-12-27T00:21:25.722Z,5.74
2018-12-27T00:23:55.159Z,5.81
2018-12-27T00:26:24.644Z,5.89
2018-12-27T00:28:54.126Z,5.87
2018-12-27T00:31:24.644Z,5.73
2018-12-27T00:33:54.843Z,5.81
2018-12-27T00:36:24.813Z,5.91
2018-12-27T00:38:54.686Z,5.94
2018-12-27T00:41:24.859Z,5.96
2018-12-27T00:43:54.749Z,6.03
2018-12-27T00:46:24.731Z,5.96
2018-12-27T00:48:54.874Z,6.04
2018-12-27T00:51:24.955Z,6.03
2018-12-27T00:53:54.845Z,6.06
2018-12-27T00:56:25.038Z,6.12
2018-12-27T00:58:55.003Z,6.16
2018-12-27T01:01:24.988Z,6.21
2018-12-27T01:03:55.253Z,6.19
2018-12-27T01:06:25.249Z,6.27
2018-12-27T01:08:55.143Z,6.27
2018-12-27T01:11:25.408Z,6.30
2018-12-27T01:13:55.426Z,6.36
2018-12-27T01:16:25.387Z,6.43
2018-12-27T01:18:55.692Z,6.44
2018-12-27T01:21:25.275Z,6.52
2018-12-27T01:23:55.281Z,6.56
2018-12-27T01:26:25.551Z,6.58
2018-12-27T01:28:55.425Z,6.55
2018-12-27T01:31:25.338Z,6.57
2018-12-27T01:33:55.880Z,6.65
2018-12-27T01:36:25.795Z,6.65
2018-12-27T01:38:55.799Z,6.61
2018-12-27T01:41:25.956Z,6.68
2018-12-27T01:43:55.933Z,6.71
2018-12-27T01:46:25.822Z,6.70
2018-12-27T01:48:55.974Z,6.68
2018-12-27T01:51:26.190Z,6.73
2018-12-27T01:53:56.174Z,6.71
2018-12-27T01:56:26.426Z,6.70
2018-12-27T01:58:56.470Z,6.72
2018-12-27T02:01:26.463Z,6.68
2018-12-27T02:03:56.706Z,6.68
2018-12-27T02:06:26.630Z,6.76
2018-12-27T02:08:56.586Z,6.81
2018-12-27T02:11:26.858Z,6.85
2018-12-27T02:13:56.806Z,6.83
2018-12-27T02:16:26.809Z,6.86
2018-12-27T02:18:57.037Z,6.88
2018-12-27T02:21:26.728Z,6.81
2018-12-27T02:23:56.196Z,6.88
2018-12-27T02:26:25.885Z,6.98
2018-12-27T02:28:55.800Z,7.00
2018-12-27T02:31:25.264Z,6.95
2018-12-27T02:33:55.554Z,7.00
2018-12-27T02:36:25.758Z,7.02
2018-12-27T02:38:55.652Z,7.06
2018-12-27T02:41:25.818Z,6.98
2018-12-27T02:43:55.753Z,6.97
2018-12-27T02:46:25.617Z,7.02
2018-12-27T02:48:55.864Z,7.03
2018-12-27T02:51:25.785Z,7.04
2018-12-27T02:53:55.649Z,6.97
2018-12-27T02:56:25.814Z,7.04
2018-12-27T02:58:55.312Z,7.09
2018-12-27T03:01:25.287Z,7.05
2018-12-27T03:03:55.349Z,7.10
2018-12-27T03:06:24.914Z,7.13
2018-12-27T03:08:54.397Z,7.07
2018-12-27T03:11:24.587Z,7.13
2018-12-27T03:13:54.499Z,7.12
2018-12-27T03:16:24.390Z,7.13
2018-12-27T03:18:53.973Z,7.13
2018-12-27T03:21:24.049Z,7.14
2018-12-27T03:23:53.924Z,7.18
2018-12-27T03:26:23.448Z,7.19
2018-12-27T03:28:52.999Z,7.23
2018-12-27T03:31:23.062Z,7.23
2018-12-27T03:33:53.210Z,7.23
2018-12-27T03:36:23.084Z,7.27
2018-12-27T03:38:53.434Z,7.19
2018-12-27T03:41:23.552Z,7.30
2018-12-27T03:43:53.481Z,7.39
2018-12-27T03:46:23.588Z,7.33
2018-12-27T03:48:53.151Z,7.36
2018-12-27T03:51:23.062Z,7.39
2018-12-27T03:53:52.938Z,7.39
2018-12-27T03:56:23.159Z,7.35
2018-12-27T03:58:53.114Z,7.41
2018-12-27T04:01:22.985Z,7.43
2018-12-27T04:04:01.075Z,7.43
2018-12-27T04:06:24.816Z,7.35
2018-12-27T04:08:54.794Z,7.38
2018-12-27T04:11:24.717Z,7.40
2018-12-27T04:13:54.161Z,7.41
2018-12-27T04:16:24.211Z,7.42
2018-12-27T04:18:53.346Z,7.50
2018-12-27T04:21:22.770Z,7.50
2018-12-27T04:23:52.629Z,7.46
2018-12-27T04:26:22.031Z,7.55
2018-12-27T04:28:51.412Z,7.65
2018-12-27T04:31:21.121Z,7.67
2018-12-27T04:33:50.564Z,7.66
2018-12-27T04:36:19.932Z,7.71
2018-12-27T04:38:49.838Z,7.67
2018-12-27T04:41:19.550Z,7.69
2018-12-27T04:43:48.913Z,7.73
2018-12-27T04:46:18.668Z,7.73
2018-12-27T04:48:47.817Z,7.75
2018-12-27T04:51:17.259Z,7.77
2018-12-27T04:53:46.878Z,7.82
2018-12-27T04:56:16.288Z,7.77
2018-12-27T04:58:45.830Z,7.74
2018-12-27T05:01:15.387Z,7.75
2018-12-27T05:03:44.850Z,7.79
2018-12-27T05:06:14.277Z,7.80
2018-12-27T05:08:43.734Z,7.81
2018-12-27T05:11:13.187Z,7.87
2018-12-27T05:13:42.607Z,7.86
2018-12-27T05:16:12.323Z,7.89
2018-12-27T05:18:41.974Z,7.87
2018-12-27T05:21:11.535Z,7.97
2018-12-27T05:23:41.161Z,7.93
2018-12-27T05:26:10.545Z,7.97
2018-12-27T05:28:39.961Z,7.92
2018-12-27T05:31:09.563Z,7.97
2018-12-27T05:33:38.933Z,7.94
2018-12-27T05:36:08.352Z,7.98
2018-12-27T05:38:38.058Z,7.95
2018-12-27T05:41:07.425Z,8.02
2018-12-27T05:43:37.549Z,8.10
2018-12-27T05:46:07.190Z,8.13
2018-12-27T05:48:36.552Z,8.12
2018-12-27T05:51:06.517Z,8.17
2018-12-27T05:53:36.119Z,8.14
2018-12-27T05:56:06.270Z,8.15
2018-12-27T05:58:35.691Z,8.15
2018-12-27T06:01:06.384Z,8.16
2018-12-27T06:03:35.777Z,8.20
2018-12-27T06:06:06.311Z,8.23
2018-12-27T06:08:35.911Z,8.21
2018-12-27T06:11:06.403Z,8.25
2018-12-27T06:13:35.838Z,8.23
2018-12-27T06:16:06.345Z,8.29
2018-12-27T06:18:35.704Z,8.28
2018-12-27T06:21:05.985Z,8.34
2018-12-27T06:23:35.600Z,8.36
2018-12-27T06:26:06.079Z,8.35
2018-12-27T06:28:35.509Z,8.29
2018-12-27T06:31:06.487Z,8.35
2018-12-27T06:33:35.870Z,8.39
2018-12-27T06:36:05.993Z,8.37
2018-12-27T06:38:35.580Z,8.37
2018-12-27T06:41:06.140Z,8.40
2018-12-27T06:43:35.620Z,8.45
2018-12-27T06:46:06.470Z,8.40
2018-12-27T06:48:35.897Z,8.41
2018-12-27T06:51:06.386Z,8.40
2018-12-27T06:53:35.934Z,8.46
2018-12-27T06:56:06.273Z,8.46
2018-12-27T06:58:37.923Z,8.45
2018-12-27T07:01:06.990Z,8.41
2018-12-27T07:03:36.362Z,8.39
2018-12-27T07:06:06.248Z,8.50
2018-12-27T07:08:35.433Z,8.44
2018-12-27T07:11:05.068Z,8.49
2018-12-27T07:13:34.649Z,8.46
2018-12-27T07:16:03.832Z,8.48
2018-12-27T07:18:33.369Z,8.52
2018-12-27T07:21:02.453Z,8.52
2018-12-27T07:23:32.431Z,8.53
2018-12-27T07:26:01.932Z,8.52
2018-12-27T07:28:31.052Z,8.51
2018-12-27T07:31:00.741Z,8.48
2018-12-27T07:33:30.159Z,8.46
2018-12-27T07:35:59.246Z,8.51
2018-12-27T07:38:28.945Z,8.48
2018-12-27T07:40:58.491Z,8.46
2018-12-27T07:43:27.864Z,8.44
2018-12-27T07:45:57.260Z,8.42
2018-12-27T07:48:26.789Z,8.42
2018-12-27T07:50:56.288Z,8.37
2018-12-27T07:53:25.763Z,8.32
2018-12-27T07:55:55.203Z,8.36
2018-12-27T07:58:24.586Z,8.31
2018-12-27T08:00:54.165Z,8.25
2018-12-27T08:03:23.403Z,8.26
2018-12-27T08:05:52.831Z,8.26
2018-12-27T08:08:22.411Z,8.26
2018-12-27T08:10:52.188Z,8.27
2018-12-27T08:13:21.598Z,8.31
2018-12-27T08:15:53.056Z,8.35
2018-12-27T08:18:22.657Z,8.30
2018-12-27T08:20:52.046Z,8.27
2018-12-27T08:23:21.438Z,8.27
2018-12-27T08:25:50.852Z,8.36
2018-12-27T08:28:20.484Z,8.31
2018-12-27T08:30:49.622Z,8.26
2018-12-27T08:33:19.787Z,8.25
2018-12-27T08:35:49.041Z,8.21
2018-12-27T08:38:18.490Z,8.24
2018-12-27T08:40:48.103Z,8.24
2018-12-27T08:43:25.633Z,8.27
2018-12-27T08:46:00.016Z,8.30
2018-12-27T08:48:29.802Z,8.28
2018-12-27T08:50:59.300Z,8.32
2018-12-27T08:53:28.703Z,8.31
2018-12-27T08:55:58.259Z,8.35
2018-12-27T08:58:27.810Z,8.22
2018-12-27T09:00:56.931Z,8.25
2018-12-27T09:03:26.425Z,8.21
2018-12-27T09:05:55.587Z,8.23
2018-12-27T09:08:25.084Z,8.23
2018-12-27T09:10:54.548Z,8.26
2018-12-27T09:13:23.882Z,8.26
2018-12-27T09:15:53.303Z,8.23
2018-12-27T09:18:23.325Z,8.21
2018-12-27T09:20:52.696Z,8.25
2018-12-27T09:23:22.104Z,8.23
2018-12-27T09:25:51.829Z,8.26
2018-12-27T09:28:21.116Z,8.26
2018-12-27T09:30:50.540Z,8.22
2018-12-27T09:33:20.302Z,8.23
2018-12-27T09:35:49.400Z,8.24
2018-12-27T09:38:18.561Z,8.20
2018-12-27T09:40:48.118Z,8.27
2018-12-27T09:43:17.267Z,8.33
2018-12-27T09:45:46.416Z,8.32
2018-12-27T09:48:16.002Z,8.31
2018-12-27T09:50:45.165Z,8.31
2018-12-27T09:53:14.624Z,8.33
2018-12-27T09:55:43.904Z,8.28
2018-12-27T09:58:13.043Z,8.31
2018-12-27T10:00:42.460Z,8.17
2018-12-27T10:03:12.017Z,8.19
2018-12-27T10:05:41.185Z,8.14
2018-12-27T10:08:10.323Z,8.24
2018-12-27T10:10:39.882Z,8.22
2018-12-27T10:13:09.229Z,8.21
2018-12-27T10:15:41.682Z,8.33
2018-12-27T10:18:11.097Z,8.34
2018-12-27T10:20:40.489Z,8.27
2018-12-27T10:23:09.747Z,8.30
2018-12-27T10:25:42.263Z,8.23
2018-12-27T10:28:11.920Z,8.30
2018-12-27T10:30:41.233Z,8.29
2018-12-27T10:33:10.796Z,8.30
2018-12-27T10:35:41.234Z,8.34
2018-12-27T10:38:10.820Z,8.33
2018-12-27T10:40:39.938Z,8.32
2018-12-27T10:43:09.538Z,8.25
2018-12-27T10:45:38.869Z,8.28
2018-12-27T10:48:08.274Z,8.25
2018-12-27T10:50:38.300Z,8.25
2018-12-27T10:53:07.456Z,8.20
2018-12-27T10:55:36.630Z,8.26
2018-12-27T10:58:06.564Z,8.30
2018-12-27T11:00:35.848Z,8.30
2018-12-27T11:03:05.961Z,8.42
2018-12-27T11:05:35.384Z,8.32
2018-12-27T11:08:05.695Z,8.35
2018-12-27T11:10:34.824Z,8.34
2018-12-27T11:13:04.605Z,8.40
2018-12-27T11:15:34.216Z,8.42
2018-12-27T11:18:03.595Z,8.33
2018-12-27T11:20:33.315Z,8.38
2018-12-27T11:23:03.044Z,8.36
2018-12-27T11:25:32.154Z,8.34
2018-12-27T11:28:01.729Z,8.37
2018-12-27T11:30:30.905Z,8.35
2018-12-27T11:33:00.108Z,8.33
2018-12-27T11:35:30.040Z,8.36
2018-12-27T11:37:59.419Z,8.25
2018-12-27T11:40:28.862Z,8.26
2018-12-27T11:42:58.388Z,8.29
2018-12-27T11:45:27.550Z,8.29
2018-12-27T11:47:56.689Z,8.33
2018-12-27T11:50:26.429Z,8.34
2018-12-27T11:52:55.872Z,8.33
2018-12-27T11:55:25.395Z,8.28
2018-12-27T11:57:55.043Z,8.32
2018-12-27T12:00:24.507Z,8.27
2018-12-27T12:02:53.953Z,8.28
2018-12-27T12:05:23.624Z,8.29
2018-12-27T12:07:53.165Z,8.34
2018-12-27T12:10:22.560Z,8.35
2018-12-27T12:12:52.146Z,8.32
2018-12-27T12:15:21.616Z,8.40
2018-12-27T12:17:51.018Z,8.37
2018-12-27T12:20:20.719Z,8.37
2018-12-27T12:22:50.176Z,8.33
2018-12-27T12:25:20.076Z,8.42
2018-12-27T12:27:49.574Z,8.40
2018-12-27T12:30:18.775Z,8.36
2018-12-27T12:32:47.902Z,8.40
2018-12-27T12:35:17.850Z,8.45
2018-12-27T12:37:47.022Z,8.39
2018-12-27T12:40:16.539Z,8.36
2018-12-27T12:42:46.521Z,8.35
2018-12-27T12:45:15.922Z,8.40
2018-12-27T12:47:45.068Z,8.40
2018-12-27T12:50:14.357Z,8.38
2018-12-27T12:52:43.575Z,8.41
2018-12-27T12:55:12.717Z,8.31
2018-12-27T12:57:42.482Z,8.38
2018-12-27T13:00:11.593Z,8.32
2018-12-27T13:02:40.809Z,8.36
2018-12-27T13:05:10.355Z,8.39
2018-12-27T13:07:39.509Z,8.36
2018-12-27T13:10:09.185Z,8.38
2018-12-27T13:12:38.907Z,8.45
2018-12-27T13:15:08.089Z,8.42
2018-12-27T13:17:37.342Z,8.46
2018-12-27T13:20:08.980Z,8.36
2018-12-27T13:22:38.625Z,8.39
2018-12-27T13:25:08.003Z,8.42
2018-12-27T13:27:37.746Z,8.33
2018-12-27T13:30:08.988Z,8.32
2018-12-27T13:32:38.759Z,8.33
2018-12-27T13:35:08.381Z,8.30
2018-12-27T13:37:37.499Z,8.34
2018-12-27T13:40:08.418Z,8.32
2018-12-27T13:42:37.708Z,8.26
2018-12-27T13:45:08.306Z,8.32
2018-12-27T13:47:37.810Z,8.30
2018-12-27T13:50:08.896Z,8.22
2018-12-27T13:52:38.193Z,8.22
2018-12-27T13:55:07.685Z,8.25
2018-12-27T13:57:37.213Z,8.20
2018-12-27T14:00:08.724Z,8.21
2018-12-27T14:02:38.197Z,8.17
2018-12-27T14:05:09.234Z,8.12
2018-12-27T14:07:38.707Z,8.14
2018-12-27T14:10:08.613Z,8.17
2018-12-27T14:12:38.088Z,8.14
2018-12-27T14:15:08.027Z,8.05
2018-12-27T14:17:37.666Z,8.03
2018-12-27T14:20:09.386Z,8.00
2018-12-27T14:22:38.580Z,8.02
2018-12-27T14:25:08.010Z,8.01
2018-12-27T14:27:37.521Z,7.98
2018-12-27T14:30:09.031Z,7.96
2018-12-27T14:32:38.485Z,7.92
2018-12-27T14:35:07.703Z,7.94
2018-12-27T14:37:37.080Z,7.90
2018-12-27T14:40:09.715Z,7.88
2018-12-27T14:42:38.922Z,7.89
2018-12-27T14:45:08.596Z,7.87
2018-12-27T14:47:38.208Z,7.84
2018-12-27T14:50:07.801Z,7.86
2018-12-27T14:52:36.973Z,7.85
2018-12-27T14:55:07.009Z,7.91
2018-12-27T14:57:36.542Z,7.89
2018-12-27T15:00:10.015Z,7.88
2018-12-27T15:02:39.451Z,7.91
2018-12-27T15:05:08.958Z,7.87
2018-12-27T15:07:38.489Z,7.88
2018-12-27T15:10:09.760Z,7.90
2018-12-27T15:12:39.099Z,7.87
2018-12-27T15:15:08.603Z,7.91
2018-12-27T15:17:37.975Z,7.93
2018-12-27T15:20:08.259Z,7.99
2018-12-27T15:22:38.078Z,7.94
2018-12-27T15:25:07.197Z,8.00
2018-12-27T15:27:36.932Z,7.97
2018-12-27T15:30:07.286Z,7.96
2018-12-27T15:32:36.511Z,7.92
2018-12-27T15:35:06.766Z,7.95
2018-12-27T15:37:35.952Z,7.96
2018-12-27T15:40:05.989Z,7.94
2018-12-27T15:42:35.445Z,7.93
2018-12-27T15:45:06.254Z,7.87
2018-12-27T15:47:35.796Z,7.85
2018-12-27T15:50:09.150Z,7.82
2018-12-27T15:52:38.672Z,7.81
2018-12-27T15:55:08.175Z,7.84
2018-12-27T15:57:37.480Z,7.82
2018-12-27T16:00:09.784Z,7.83
2018-12-27T16:02:39.454Z,7.81
2018-12-27T16:05:08.923Z,7.83
2018-12-27T16:07:38.519Z,7.82
2018-12-27T16:10:07.938Z,7.83
2018-12-27T16:12:37.121Z,7.78
2018-12-27T16:15:07.108Z,7.77
2018-12-27T16:17:38.182Z,7.74
2018-12-27T16:20:07.620Z,7.75
2018-12-27T16:22:37.425Z,7.74
2018-12-27T16:25:07.079Z,7.68
2018-12-27T16:27:36.560Z,7.64
2018-12-27T16:30:09.411Z,7.65
2018-12-27T16:32:38.896Z,7.71
2018-12-27T16:35:08.451Z,7.66
2018-12-27T16:37:37.845Z,7.68
2018-12-27T16:40:09.195Z,7.66
2018-12-27T16:42:38.422Z,7.68
2018-12-27T16:45:08.816Z,7.68
2018-12-27T16:47:38.341Z,7.61
2018-12-27T16:50:10.272Z,7.63
2018-12-27T16:52:39.397Z,7.60
2018-12-27T16:55:08.608Z,7.63
2018-12-27T16:57:38.151Z,7.64
2018-12-27T17:00:09.154Z,7.66
2018-12-27T17:02:38.394Z,7.69
2018-12-27T17:05:08.145Z,7.70
2018-12-27T17:07:37.647Z,7.78
2018-12-27T17:10:07.724Z,7.74
2018-12-27T17:12:37.128Z,7.78
2018-12-27T17:15:07.636Z,7.72
2018-12-27T17:17:36.961Z,7.75
2018-12-27T17:20:07.281Z,7.82
2018-12-27T17:22:36.735Z,7.79
2018-12-27T17:25:06.775Z,7.81
2018-12-27T17:27:36.821Z,7.77
2018-12-27T17:30:08.751Z,7.80
2018-12-27T17:32:38.187Z,7.78
2018-12-27T17:35:08.674Z,7.83
2018-12-27T17:37:38.077Z,7.80
2018-12-27T17:40:09.525Z,7.75
2018-12-27T17:42:39.173Z,7.79
2018-12-27T17:45:09.030Z,7.83
2018-12-27T17:47:38.718Z,7.82
2018-12-27T17:50:08.724Z,7.76
2018-12-27T17:52:37.984Z,7.84
2018-12-27T17:55:07.223Z,7.87
2018-12-27T17:57:36.589Z,7.87
2018-12-27T18:00:09.639Z,7.88
2018-12-27T18:02:39.195Z,7.91
2018-12-27T18:05:08.729Z,7.88
2018-12-27T18:07:38.012Z,7.90
2018-12-27T18:10:08.467Z,7.91
2018-12-27T18:12:37.687Z,7.91
2018-12-27T18:15:08.921Z,7.89
2018-12-27T18:17:38.313Z,7.89
2018-12-27T18:20:07.668Z,7.90
2018-12-27T18:22:36.990Z,7.90
2018-12-27T18:25:06.904Z,7.97
2018-12-27T18:27:36.123Z,7.93
2018-12-27T18:30:09.142Z,7.85
2018-12-27T18:32:38.810Z,7.85
2018-12-27T18:35:09.325Z,7.86
2018-12-27T18:37:38.930Z,7.88
2018-12-27T18:40:08.502Z,7.85
2018-12-27T18:42:37.703Z,7.83
2018-12-27T18:45:09.880Z,7.85
2018-12-27T18:47:39.273Z,7.86
2018-12-27T18:50:08.461Z,7.85
2018-12-27T18:52:38.444Z,7.86
2018-12-27T18:55:07.673Z,7.88
2018-12-27T18:57:36.944Z,7.85
2018-12-27T19:00:10.645Z,7.80
2018-12-27T19:02:42.164Z,7.81
2018-12-27T19:05:11.416Z,7.87
2018-12-27T19:07:44.864Z,7.88
2018-12-27T19:10:12.364Z,7.88
2018-12-27T19:13:04.190Z,7.90
2018-12-27T19:15:41.384Z,7.88
2018-12-27T19:18:24.417Z,7.89
2018-12-27T19:20:59.084Z,7.87
2018-12-27T19:23:29.865Z,7.87
2018-12-27T19:25:59.466Z,7.91
2018-12-27T19:28:28.995Z,7.87
2018-12-27T19:30:58.894Z,7.93
2018-12-27T19:33:28.722Z,7.96
2018-12-27T19:35:58.212Z,8.01
2018-12-27T19:38:27.333Z,8.02
2018-12-27T19:40:56.962Z,7.99
2018-12-27T19:43:26.608Z,8.01
2018-12-27T19:45:55.715Z,8.01
2018-12-27T19:48:25.260Z,8.03
2018-12-27T19:50:54.984Z,8.07
2018-12-27T19:53:24.314Z,8.11
2018-12-27T19:55:54.033Z,8.11
2018-12-27T19:58:23.575Z,8.07
2018-12-27T20:00:56.314Z,8.11
2018-12-27T20:03:25.452Z,8.16
2018-12-27T20:05:54.724Z,8.13
2018-12-27T20:08:24.603Z,8.14
2018-12-27T20:10:53.718Z,8.13
2018-12-27T20:13:23.047Z,8.20
2018-12-27T20:15:52.744Z,8.12
2018-12-27T20:18:22.119Z,8.14
2018-12-27T20:20:51.564Z,8.17
2018-12-27T20:23:21.340Z,8.15
2018-12-27T20:25:50.788Z,8.19
2018-12-27T20:28:20.190Z,8.23
2018-12-27T20:30:49.810Z,8.22
2018-12-27T20:33:19.960Z,8.22
2018-12-27T20:35:49.337Z,8.22
2018-12-27T20:38:19.168Z,8.26
2018-12-27T20:40:48.480Z,8.23
2018-12-27T20:43:17.682Z,8.28
2018-12-27T20:45:47.828Z,8.28
2018-12-27T20:48:17.495Z,8.30
2018-12-27T20:50:46.886Z,8.31
2018-12-27T20:53:16.470Z,8.30
2018-12-27T20:55:45.956Z,8.30
2018-12-27T20:58:15.409Z,8.30
2018-12-27T21:00:44.980Z,8.27
2018-12-27T21:03:14.390Z,8.38
2018-12-27T21:05:43.939Z,8.29
2018-12-27T21:08:14.354Z,8.30
2018-12-27T21:10:44.326Z,8.28
2018-12-27T21:13:13.891Z,8.33
2018-12-27T21:15:43.532Z,8.37
2018-12-27T21:18:12.915Z,8.37
2018-12-27T21:20:42.354Z,8.40
2018-12-27T21:23:12.135Z,8.39
2018-12-27T21:25:41.520Z,8.43
2018-12-27T21:28:10.996Z,8.43
2018-12-27T21:30:40.546Z,8.47
2018-12-27T21:33:13.732Z,8.48
2018-12-27T21:35:43.715Z,8.42
2018-12-27T21:38:13.199Z,8.42
2018-12-27T21:40:42.589Z,8.41
2018-12-27T21:43:12.806Z,8.47
2018-12-27T21:45:42.270Z,8.42
2018-12-27T21:48:11.533Z,8.45
2018-12-27T21:50:41.624Z,8.45
2018-12-27T21:53:11.104Z,8.49
2018-12-27T21:55:40.472Z,8.40
2018-12-27T21:58:10.468Z,8.42
2018-12-27T22:00:39.979Z,8.44
2018-12-27T22:03:09.485Z,8.48
2018-12-27T22:05:39.025Z,8.51
2018-12-27T22:08:08.473Z,8.52
2018-12-27T22:10:38.150Z,8.51
2018-12-27T22:13:07.790Z,8.55
2018-12-27T22:15:37.024Z,8.55
2018-12-27T22:18:06.169Z,8.50
2018-12-27T22:20:36.080Z,8.49
2018-12-27T22:23:06.042Z,8.51
2018-12-27T22:25:35.437Z,8.56
2018-12-27T22:28:06.578Z,8.53
2018-12-27T22:30:36.090Z,8.54
2018-12-27T22:33:05.899Z,8.61
2018-12-27T22:35:35.561Z,8.56
2018-12-27T22:38:06.646Z,8.53
2018-12-27T22:40:36.434Z,8.48
2018-12-27T22:43:05.889Z,8.40
2018-12-27T22:45:35.297Z,8.39
2018-12-27T22:48:06.156Z,8.46
2018-12-27T22:50:35.681Z,8.48
2018-12-27T22:53:05.876Z,8.49
2018-12-27T22:55:35.476Z,8.50
2018-12-27T22:58:04.968Z,8.57
2018-12-27T23:00:38.292Z,8.54
2018-12-27T23:03:07.750Z,8.55
2018-12-27T23:05:37.238Z,8.56
2018-12-27T23:08:07.003Z,8.55
2018-12-27T23:10:36.436Z,8.57
2018-12-27T23:13:06.086Z,8.59
2018-12-27T23:15:35.833Z,8.58
2018-12-27T23:18:06.288Z,8.55
2018-12-27T23:20:35.731Z,8.55
2018-12-27T23:23:06.201Z,8.62
2018-12-27T23:25:35.415Z,8.58
2018-12-27T23:28:04.811Z,8.56
2018-12-27T23:30:34.502Z,8.53
2018-12-27T23:33:03.960Z,8.56
2018-12-27T23:35:33.381Z,8.63
2018-12-27T23:38:03.215Z,8.63
2018-12-27T23:40:32.889Z,8.58
2018-12-27T23:43:02.437Z,8.52
2018-12-27T23:45:32.255Z,8.53
2018-12-27T23:48:01.768Z,8.57
2018-12-27T23:50:31.539Z,8.57
2018-12-27T23:53:01.251Z,8.58
2018-12-27T23:55:30.775Z,8.54
2018-12-27T23:58:00.373Z,8.58
